Time;durP1;ratioP1;P1;durP2;ratioP2;P2;SDS_P1;SDS_P2;PMS_P1;PMS_P2;Temp;Humidity;BMP_temperature;BMP_pressure;BME280_temperature;BME280_humidity;BME280_pressure;Samples;Min_cycle;Max_cycle;Signal;HPM_P1;HPM_P2
2023/09/22 00:00:49;;;;;;;;;;;23.50;74.60;;;;;;5124100;28;20131;-46
2023/09/22 00:03:15;;;;;;;;;;;23.50;74.90;;;;;;5124503;28;20425;-44
2023/09/22 00:05:41;;;;;;;;;;;23.50;75.20;;;;;;5125188;28;19908;-45
2023/09/22 00:08:07;;;;;;;;;;;23.50;75.00;;;;;;5123688;28;19907;-46
2023/09/22 00:10:33;;;;;;;;;;;23.50;74.90;;;;;;5124699;28;19923;-47
2023/09/22 00:12:59;;;;;;;;;;;23.50;74.70;;;;;;5123496;28;20471;-46
2023/09/22 00:15:27;;;;;;;;;;;23.50;74.80;;;;;;5123596;28;19938;-45
2023/09/22 00:17:53;;;;;;;;;;;23.50;74.60;;;;;;5124460;28;19907;-46
2023/09/22 00:20:20;;;;;;;;;;;23.50;74.60;;;;;;5124081;27;19917;-46
2023/09/22 00:22:46;;;;;;;;;;;23.50;74.60;;;;;;5123080;28;20495;-45
2023/09/22 00:25:12;;;;;;;;;;;23.50;74.50;;;;;;5122702;28;19911;-45
2023/09/22 00:27:38;;;;;;;;;;;23.50;74.50;;;;;;5123479;28;19918;-46
2023/09/22 00:30:05;;;;;;;;;;;23.50;75.00;;;;;;5123725;28;20291;-46
2023/09/22 00:32:31;;;;;;;;;;;23.50;75.30;;;;;;5123899;28;19971;-45
2023/09/22 00:34:56;;;;;;;;;;;23.50;75.50;;;;;;5124160;28;19912;-45
2023/09/22 00:37:23;;;;;;;;;;;23.50;75.60;;;;;;5123089;28;19930;-45
2023/09/22 00:39:49;;;;;;;;;;;23.50;75.70;;;;;;5123322;28;19911;-46
2023/09/22 00:42:14;;;;;;;;;;;23.50;75.70;;;;;;5123114;28;19919;-45
2023/09/22 00:44:40;;;;;;;;;;;23.50;75.70;;;;;;5123822;28;19914;-46
2023/09/22 00:47:08;;;;;;;;;;;23.50;75.70;;;;;;5123749;28;19911;-45
2023/09/22 00:49:34;;;;;;;;;;;23.50;75.70;;;;;;5123763;28;19922;-46
2023/09/22 00:52:00;;;;;;;;;;;23.50;75.50;;;;;;5123029;28;20661;-45
2023/09/22 00:54:26;;;;;;;;;;;23.50;75.40;;;;;;5123829;28;19915;-47
2023/09/22 00:56:52;;;;;;;;;;;23.50;75.30;;;;;;5123478;28;19920;-45
2023/09/22 00:59:18;;;;;;;;;;;23.50;75.10;;;;;;5123112;28;20025;-45
2023/09/22 01:01:44;;;;;;;;;;;23.50;75.00;;;;;;5114967;28;19912;-46
2023/09/22 01:04:13;;;;;;;;;;;23.50;75.00;;;;;;5113594;28;19956;-48
2023/09/22 01:06:39;;;;;;;;;;;23.50;75.00;;;;;;5127478;27;19911;-46
2023/09/22 01:09:09;;;;;;;;;;;23.50;75.20;;;;;;5112893;28;19916;-46
2023/09/22 01:11:35;;;;;;;;;;;23.50;75.30;;;;;;5123665;28;19919;-45
2023/09/22 01:14:01;;;;;;;;;;;23.50;75.40;;;;;;5122328;28;19926;-45
2023/09/22 01:16:27;;;;;;;;;;;23.50;75.40;;;;;;5123290;28;19919;-45
2023/09/22 01:18:53;;;;;;;;;;;23.50;75.50;;;;;;5121564;28;19911;-47
2023/09/22 01:21:19;;;;;;;;;;;23.40;75.40;;;;;;5120825;28;19941;-47
2023/09/22 01:23:45;;;;;;;;;;;23.40;75.30;;;;;;5123090;28;19933;-44
2023/09/22 01:26:11;;;;;;;;;;;23.40;75.20;;;;;;5122437;28;19915;-45
2023/09/22 01:28:37;;;;;;;;;;;23.40;74.90;;;;;;5121388;28;20382;-46
2023/09/22 01:31:03;;;;;;;;;;;23.40;74.70;;;;;;5122534;28;20195;-46
2023/09/22 01:33:29;;;;;;;;;;;23.40;74.70;;;;;;5123073;28;19919;-47
2023/09/22 01:35:55;;;;;;;;;;;23.40;74.60;;;;;;5123214;28;19912;-46
2023/09/22 01:38:25;;;;;;;;;;;23.40;74.50;;;;;;5122951;28;19907;-46
2023/09/22 01:40:51;;;;;;;;;;;23.40;74.50;;;;;;5123340;28;19908;-46
2023/09/22 01:43:17;;;;;;;;;;;23.40;74.70;;;;;;5122502;28;19943;-48
2023/09/22 01:45:43;;;;;;;;;;;23.40;75.00;;;;;;5122740;28;19911;-46
2023/09/22 01:48:09;;;;;;;;;;;23.40;75.10;;;;;;5122518;28;19918;-45
2023/09/22 01:50:39;;;;;;;;;;;23.30;75.90;;;;;;5123327;28;19922;-47
2023/09/22 01:53:08;;;;;;;;;;;23.30;75.20;;;;;;5121918;28;19908;-47
2023/09/22 01:55:37;;;;;;;;;;;23.30;75.30;;;;;;5122608;28;19919;-45
2023/09/22 01:58:04;;;;;;;;;;;23.30;75.30;;;;;;5122143;28;19916;-47
2023/09/22 02:00:31;;;;;;;;;;;23.30;75.20;;;;;;5115869;28;19939;-45
2023/09/22 02:02:57;;;;;;;;;;;23.30;74.90;;;;;;5122945;28;20082;-47
2023/09/22 02:05:23;;;;;;;;;;;23.30;74.70;;;;;;5120003;28;19933;-48
2023/09/22 02:07:49;;;;;;;;;;;23.30;74.60;;;;;;5122228;28;19912;-46
2023/09/22 02:10:15;;;;;;;;;;;23.30;74.60;;;;;;5138296;27;19916;-45
2023/09/22 02:12:42;;;;;;;;;;;23.30;74.60;;;;;;5122520;28;19915;-47
2023/09/22 02:15:12;;;;;;;;;;;23.30;74.50;;;;;;5121742;28;19915;-45
2023/09/22 02:17:38;;;;;;;;;;;23.30;74.50;;;;;;5123272;28;19915;-47
2023/09/22 02:20:22;;;;;;;;;;;23.30;74.60;;;;;;5122659;28;19912;-47
2023/09/22 02:22:48;;;;;;;;;;;23.30;74.70;;;;;;5121902;28;19919;-46
2023/09/22 02:25:15;;;;;;;;;;;23.30;74.90;;;;;;5122145;28;19911;-45
2023/09/22 02:27:41;;;;;;;;;;;23.20;75.00;;;;;;5122706;28;19907;-46
2023/09/22 02:30:08;;;;;;;;;;;23.20;75.00;;;;;;5121839;28;19927;-46
2023/09/22 02:32:34;;;;;;;;;;;23.20;75.00;;;;;;5126137;27;19989;-47
2023/09/22 02:35:00;;;;;;;;;;;23.20;75.10;;;;;;5116451;28;19957;-45
2023/09/22 02:37:27;;;;;;;;;;;23.20;75.00;;;;;;5125672;28;19961;-46
2023/09/22 02:39:53;;;;;;;;;;;23.20;74.90;;;;;;5126244;28;19912;-47
2023/09/22 02:42:19;;;;;;;;;;;23.20;74.90;;;;;;5125700;28;19911;-45
2023/09/22 02:44:47;;;;;;;;;;;23.20;74.90;;;;;;5126292;28;19918;-46
2023/09/22 02:47:14;;;;;;;;;;;23.20;75.00;;;;;;5125407;28;19911;-46
2023/09/22 02:49:40;;;;;;;;;;;23.20;75.10;;;;;;5125304;28;19924;-45
2023/09/22 02:52:07;;;;;;;;;;;23.20;75.00;;;;;;5125103;28;19908;-45
2023/09/22 02:54:33;;;;;;;;;;;23.20;75.20;;;;;;5125425;28;19911;-45
2023/09/22 02:56:59;;;;;;;;;;;23.10;75.00;;;;;;5125578;27;19919;-45
2023/09/22 02:59:25;;;;;;;;;;;23.10;75.00;;;;;;5125743;27;19955;-46
2023/09/22 03:01:54;;;;;;;;;;;23.10;75.20;;;;;;5125521;28;19911;-45
2023/09/22 03:04:20;;;;;;;;;;;23.10;75.10;;;;;;5125288;28;20012;-46
2023/09/22 03:06:45;;;;;;;;;;;23.10;75.10;;;;;;5126078;28;20279;-45
2023/09/22 03:09:11;;;;;;;;;;;23.10;75.00;;;;;;5124992;28;20304;-46
2023/09/22 03:11:37;;;;;;;;;;;23.10;74.80;;;;;;5125185;28;19937;-45
2023/09/22 03:14:03;;;;;;;;;;;23.10;74.90;;;;;;5125475;28;19937;-45
2023/09/22 03:16:29;;;;;;;;;;;23.10;75.00;;;;;;5118224;28;19911;-46
2023/09/22 03:18:55;;;;;;;;;;;23.10;74.90;;;;;;5125634;28;19908;-46
2023/09/22 03:21:22;;;;;;;;;;;23.10;75.10;;;;;;5120612;28;19911;-46
2023/09/22 03:23:54;;;;;;;;;;;23.10;75.00;;;;;;5125014;27;19929;-47
2023/09/22 03:26:20;;;;;;;;;;;23.10;75.00;;;;;;5123741;28;19916;-46
2023/09/22 03:28:46;;;;;;;;;;;23.00;75.10;;;;;;5125300;28;20426;-47
2023/09/22 03:31:12;;;;;;;;;;;23.00;75.00;;;;;;5124426;28;19912;-46
2023/09/22 03:33:41;;;;;;;;;;;23.00;75.10;;;;;;5125543;28;19915;-46
2023/09/22 03:36:10;;;;;;;;;;;23.00;75.20;;;;;;5124782;28;19907;-45
2023/09/22 03:38:37;;;;;;;;;;;23.00;75.20;;;;;;5124935;28;19911;-48
2023/09/22 03:41:04;;;;;;;;;;;23.00;75.20;;;;;;5124515;28;19908;-46
2023/09/22 03:43:29;;;;;;;;;;;23.00;75.30;;;;;;5123916;28;19916;-46
2023/09/22 03:45:56;;;;;;;;;;;22.90;75.20;;;;;;5124475;28;19937;-46
2023/09/22 03:48:22;;;;;;;;;;;22.90;75.20;;;;;;5124339;28;19966;-45
2023/09/22 03:50:48;;;;;;;;;;;22.90;75.40;;;;;;5124772;28;19922;-46
2023/09/22 03:53:15;;;;;;;;;;;23.00;75.30;;;;;;5124120;28;19917;-46
2023/09/22 03:55:41;;;;;;;;;;;22.90;75.30;;;;;;5124284;28;19915;-45
2023/09/22 03:58:07;;;;;;;;;;;22.90;75.20;;;;;;5115249;28;19920;-45
2023/09/22 04:00:33;;;;;;;;;;;22.90;75.30;;;;;;5117596;28;20375;-46
2023/09/22 04:03:03;;;;;;;;;;;22.90;75.30;;;;;;5124124;28;19911;-45
2023/09/22 04:05:29;;;;;;;;;;;22.90;75.40;;;;;;5124383;28;19912;-45
2023/09/22 04:07:55;;;;;;;;;;;22.90;75.50;;;;;;5123856;28;19919;-46
2023/09/22 04:10:22;;;;;;;;;;;22.90;75.40;;;;;;5123593;28;19938;-47
2023/09/22 04:12:47;;;;;;;;;;;22.90;75.50;;;;;;5100060;28;19907;-46
2023/09/22 04:15:15;;;;;;;;;;;22.90;75.60;;;;;;5122657;28;19962;-47
2023/09/22 04:17:42;;;;;;;;;;;22.80;75.50;;;;;;5124252;28;19915;-46
2023/09/22 04:20:10;;;;;;;;;;;22.80;75.50;;;;;;5124123;27;19938;-46
2023/09/22 04:22:37;;;;;;;;;;;22.80;75.50;;;;;;5124501;28;19912;-46
2023/09/22 04:25:11;;;;;;;;;;;22.80;75.70;;;;;;5123792;28;19950;-46
2023/09/22 04:27:43;;;;;;;;;;;22.80;75.60;;;;;;5117881;28;19911;-46
2023/09/22 04:30:15;;;;;;;;;;;22.80;75.50;;;;;;5123697;28;20003;-49
2023/09/22 04:32:44;;;;;;;;;;;22.80;75.50;;;;;;5124267;28;19914;-46
2023/09/22 04:35:10;;;;;;;;;;;22.80;75.50;;;;;;5123471;28;20395;-46
2023/09/22 04:37:36;;;;;;;;;;;22.80;75.60;;;;;;5123568;28;19912;-46
2023/09/22 04:40:23;;;;;;;;;;;22.80;75.60;;;;;;5123052;28;19907;-47
2023/09/22 04:42:49;;;;;;;;;;;22.70;75.60;;;;;;5113174;28;20384;-46
2023/09/22 04:45:17;;;;;;;;;;;22.70;75.60;;;;;;5122470;28;20246;-46
2023/09/22 04:47:45;;;;;;;;;;;22.70;75.50;;;;;;5124328;27;19911;-46
2023/09/22 04:50:15;;;;;;;;;;;22.70;75.60;;;;;;5123552;28;19916;-46
2023/09/22 04:52:41;;;;;;;;;;;22.70;75.70;;;;;;5123520;28;20688;-46
2023/09/22 04:55:07;;;;;;;;;;;22.70;75.60;;;;;;5122690;28;19927;-46
2023/09/22 04:57:33;;;;;;;;;;;22.70;75.70;;;;;;5122976;28;19919;-45
2023/09/22 04:59:59;;;;;;;;;;;22.70;75.90;;;;;;5123438;28;19912;-45
2023/09/22 05:02:25;;;;;;;;;;;22.70;75.90;;;;;;5123568;28;19946;-46
2023/09/22 05:07:19;;;;;;;;;;;22.70;75.70;;;;;;5070521;28;19980;-45
2023/09/22 05:09:45;;;;;;;;;;;22.60;75.70;;;;;;5123419;28;19958;-45
2023/09/22 05:12:11;;;;;;;;;;;22.60;75.60;;;;;;5122868;28;19938;-48
2023/09/22 05:14:37;;;;;;;;;;;22.60;75.70;;;;;;5123301;28;19961;-46
2023/09/22 05:17:04;;;;;;;;;;;22.60;75.70;;;;;;5123047;28;19919;-45
2023/09/22 05:19:29;;;;;;;;;;;22.60;75.70;;;;;;5104980;28;19965;-45
2023/09/22 05:21:55;;;;;;;;;;;22.60;75.70;;;;;;5122868;28;19915;-47
2023/09/22 05:24:21;;;;;;;;;;;22.60;75.70;;;;;;5122733;28;19999;-45
2023/09/22 05:26:47;;;;;;;;;;;22.60;75.80;;;;;;5116647;28;19907;-45
2023/09/22 05:29:13;;;;;;;;;;;22.60;75.90;;;;;;5118849;28;19920;-44
2023/09/22 05:31:39;;;;;;;;;;;22.60;75.90;;;;;;5123121;28;19911;-44
2023/09/22 05:34:04;;;;;;;;;;;22.60;76.00;;;;;;5119087;28;19929;-46
2023/09/22 05:36:30;;;;;;;;;;;22.60;75.90;;;;;;5122968;28;19915;-46
2023/09/22 05:38:56;;;;;;;;;;;22.50;75.80;;;;;;5114805;28;19957;-46
2023/09/22 05:41:22;;;;;;;;;;;22.50;76.00;;;;;;5119535;28;19915;-45
2023/09/22 05:43:49;;;;;;;;;;;22.50;75.90;;;;;;5111648;28;19958;-45
2023/09/22 05:46:15;;;;;;;;;;;22.50;76.00;;;;;;5111555;28;19912;-46
2023/09/22 05:48:41;;;;;;;;;;;22.50;75.90;;;;;;5116849;28;19907;-46
2023/09/22 05:51:07;;;;;;;;;;;22.50;75.90;;;;;;5095889;28;20045;-46
2023/09/22 05:53:35;;;;;;;;;;;22.50;75.90;;;;;;5123393;28;19911;-45
2023/09/22 05:56:04;;;;;;;;;;;22.50;76.00;;;;;;5114358;28;20442;-45
2023/09/22 05:58:30;;;;;;;;;;;22.50;75.90;;;;;;5100763;28;19986;-45
2023/09/22 06:00:57;;;;;;;;;;;22.50;75.90;;;;;;5103791;28;19958;-46
2023/09/22 06:03:23;;;;;;;;;;;22.50;75.90;;;;;;5115164;28;19907;-45
2023/09/22 06:05:49;;;;;;;;;;;22.50;76.00;;;;;;5123295;28;19911;-45
2023/09/22 06:08:15;;;;;;;;;;;22.50;76.00;;;;;;5126372;28;19911;-47
2023/09/22 06:10:43;;;;;;;;;;;22.40;76.00;;;;;;5127133;28;19951;-47
2023/09/22 06:13:09;;;;;;;;;;;22.40;76.00;;;;;;5126401;28;19912;-46
2023/09/22 06:15:35;;;;;;;;;;;22.40;76.00;;;;;;5126392;28;20012;-45
2023/09/22 06:18:04;;;;;;;;;;;22.40;76.00;;;;;;5117985;28;20360;-45
2023/09/22 06:20:30;;;;;;;;;;;22.40;76.10;;;;;;5126914;28;19919;-44
2023/09/22 06:22:57;;;;;;;;;;;22.40;76.10;;;;;;5126600;28;19935;-45
2023/09/22 06:25:26;;;;;;;;;;;22.40;76.20;;;;;;5125906;28;20239;-46
2023/09/22 06:27:54;;;;;;;;;;;22.40;76.10;;;;;;5126346;28;19954;-46
2023/09/22 06:30:20;;;;;;;;;;;22.40;76.20;;;;;;5121169;27;19951;-45
2023/09/22 06:32:46;;;;;;;;;;;22.40;76.20;;;;;;5126370;28;20439;-45
2023/09/22 06:35:12;;;;;;;;;;;22.30;76.10;;;;;;5125721;28;19934;-46
2023/09/22 06:37:38;;;;;;;;;;;22.30;76.10;;;;;;5125927;28;19907;-45
2023/09/22 06:40:13;;;;;;;;;;;22.30;76.10;;;;;;5126134;28;19911;-47
2023/09/22 06:42:42;;;;;;;;;;;22.30;76.20;;;;;;5120166;28;19939;-45
2023/09/22 06:45:11;;;;;;;;;;;22.30;76.20;;;;;;5125521;28;19908;-45
2023/09/22 06:47:37;;;;;;;;;;;22.30;76.20;;;;;;5125886;27;19908;-46
2023/09/22 06:50:06;;;;;;;;;;;22.30;76.30;;;;;;5125616;28;19920;-46
2023/09/22 06:52:33;;;;;;;;;;;22.30;76.30;;;;;;5118925;28;19963;-44
2023/09/22 06:55:01;;;;;;;;;;;22.30;76.30;;;;;;5125482;28;19911;-45
2023/09/22 06:57:28;;;;;;;;;;;22.30;76.40;;;;;;5124644;28;19973;-44
2023/09/22 06:59:55;;;;;;;;;;;22.30;76.30;;;;;;5125740;28;19912;-45
2023/09/22 07:02:22;;;;;;;;;;;22.20;76.30;;;;;;5125182;28;19926;-45
2023/09/22 07:04:47;;;;;;;;;;;22.30;76.40;;;;;;5125244;28;20299;-44
2023/09/22 07:07:13;;;;;;;;;;;22.20;76.30;;;;;;5125200;27;20531;-44
2023/09/22 07:09:43;;;;;;;;;;;22.20;76.30;;;;;;5125203;28;19923;-44
2023/09/22 07:12:08;;;;;;;;;;;22.20;76.30;;;;;;5124665;28;19911;-44
2023/09/22 07:14:34;;;;;;;;;;;22.20;76.40;;;;;;5125597;28;19937;-44
2023/09/22 07:17:00;;;;;;;;;;;22.20;76.50;;;;;;5124785;28;19937;-44
2023/09/22 07:19:26;;;;;;;;;;;22.20;76.40;;;;;;5124628;28;19907;-45
2023/09/22 07:21:52;;;;;;;;;;;22.20;76.40;;;;;;5125077;27;19915;-44
2023/09/22 07:24:18;;;;;;;;;;;22.20;76.50;;;;;;5123137;28;19912;-44
2023/09/22 07:26:44;;;;;;;;;;;22.20;76.60;;;;;;5125340;28;19912;-45
2023/09/22 07:29:10;;;;;;;;;;;22.20;76.50;;;;;;5120035;27;19915;-44
2023/09/22 07:31:37;;;;;;;;;;;22.20;76.60;;;;;;5123896;27;19933;-45
2023/09/22 07:34:03;;;;;;;;;;;22.20;76.60;;;;;;5112390;28;19912;-44
2023/09/22 07:36:29;;;;;;;;;;;22.10;76.50;;;;;;5125505;28;19990;-45
2023/09/22 07:38:55;;;;;;;;;;;22.10;76.60;;;;;;5116976;28;19926;-46
2023/09/22 07:41:21;;;;;;;;;;;22.20;76.70;;;;;;5122830;28;19912;-45
2023/09/22 07:43:47;;;;;;;;;;;22.10;76.60;;;;;;5124867;28;19938;-44
2023/09/22 07:46:12;;;;;;;;;;;22.10;76.70;;;;;;5124587;28;19911;-46
2023/09/22 07:48:38;;;;;;;;;;;22.10;76.60;;;;;;5124710;28;19912;-44
2023/09/22 07:51:04;;;;;;;;;;;22.10;76.70;;;;;;5124379;28;19943;-45
2023/09/22 07:53:30;;;;;;;;;;;22.10;76.60;;;;;;5117940;28;19915;-45
2023/09/22 07:55:59;;;;;;;;;;;22.10;76.70;;;;;;5121364;28;20012;-46
2023/09/22 07:58:25;;;;;;;;;;;22.10;76.70;;;;;;5123717;28;19920;-45
2023/09/22 08:00:51;;;;;;;;;;;22.10;76.70;;;;;;5124307;28;19955;-44
2023/09/22 08:03:20;;;;;;;;;;;22.10;76.80;;;;;;5124162;28;19915;-45
2023/09/22 08:05:46;;;;;;;;;;;22.10;76.80;;;;;;5116801;28;19911;-45
2023/09/22 08:08:13;;;;;;;;;;;22.10;76.80;;;;;;5123699;27;19911;-45
2023/09/22 08:10:39;;;;;;;;;;;22.10;76.80;;;;;;5124614;28;19941;-45
2023/09/22 08:13:08;;;;;;;;;;;22.00;76.70;;;;;;5124141;28;19908;-43
2023/09/22 08:15:35;;;;;;;;;;;22.00;76.80;;;;;;5098486;28;19975;-45
2023/09/22 08:18:02;;;;;;;;;;;22.00;76.80;;;;;;5123804;28;19938;-44
2023/09/22 08:20:28;;;;;;;;;;;22.00;76.80;;;;;;5124038;28;19919;-45
2023/09/22 08:22:54;;;;;;;;;;;22.00;76.90;;;;;;5124023;28;20412;-46
2023/09/22 08:25:20;;;;;;;;;;;22.00;76.90;;;;;;5122979;28;20847;-44
2023/09/22 08:27:48;;;;;;;;;;;22.00;76.90;;;;;;5105327;28;19919;-45
2023/09/22 08:30:13;;;;;;;;;;;22.00;76.90;;;;;;5123322;28;19924;-44
2023/09/22 08:32:40;;;;;;;;;;;22.00;76.90;;;;;;5124141;28;20347;-46
2023/09/22 08:35:07;;;;;;;;;;;22.00;76.90;;;;;;5123766;28;19986;-46
2023/09/22 08:37:33;;;;;;;;;;;22.00;77.00;;;;;;5123921;28;19966;-45
2023/09/22 08:40:00;;;;;;;;;;;21.90;77.00;;;;;;5115612;28;19919;-46
2023/09/22 08:42:26;;;;;;;;;;;21.90;77.60;;;;;;5122687;28;19980;-47
2023/09/22 08:44:52;;;;;;;;;;;21.90;76.90;;;;;;5123883;28;19907;-45
2023/09/22 08:47:18;;;;;;;;;;;21.90;77.00;;;;;;5123279;28;19920;-45
2023/09/22 08:49:44;;;;;;;;;;;21.90;76.90;;;;;;5123183;28;19964;-46
2023/09/22 08:52:10;;;;;;;;;;;21.90;76.90;;;;;;5122490;28;19912;-44
2023/09/22 08:54:36;;;;;;;;;;;21.90;76.90;;;;;;5123077;28;19911;-45
2023/09/22 08:57:02;;;;;;;;;;;21.90;77.00;;;;;;5120247;28;20011;-45
2023/09/22 08:59:28;;;;;;;;;;;21.90;77.00;;;;;;5105362;28;19911;-47
2023/09/22 09:01:54;;;;;;;;;;;21.80;76.90;;;;;;5121406;28;19946;-45
2023/09/22 09:04:32;;;;;;;;;;;21.90;77.10;;;;;;5096885;28;20400;-45
2023/09/22 09:06:58;;;;;;;;;;;21.90;77.10;;;;;;5115870;28;19984;-44
2023/09/22 09:09:23;;;;;;;;;;;21.90;77.10;;;;;;5116803;28;19915;-46
2023/09/22 09:11:59;;;;;;;;;;;21.80;77.00;;;;;;5116306;28;19923;-43
2023/09/22 09:14:28;;;;;;;;;;;21.80;77.00;;;;;;5116988;28;19911;-45
2023/09/22 09:16:56;;;;;;;;;;;21.80;77.00;;;;;;5115399;28;19919;-45
2023/09/22 09:19:21;;;;;;;;;;;21.80;77.10;;;;;;5116132;28;20018;-44
2023/09/22 09:22:08;;;;;;;;;;;21.80;77.20;;;;;;5116715;28;19953;-44
2023/09/22 09:24:34;;;;;;;;;;;21.80;77.10;;;;;;5116391;28;19939;-44
2023/09/22 09:27:00;;;;;;;;;;;21.80;77.10;;;;;;5114771;28;19993;-44
2023/09/22 09:29:29;;;;;;;;;;;21.80;77.00;;;;;;5116996;28;19915;-44
2023/09/22 09:32:00;;;;;;;;;;;21.80;77.20;;;;;;5114730;28;19919;-43
2023/09/22 09:34:41;;;;;;;;;;;21.70;77.00;;;;;;5122996;28;19911;-43
2023/09/22 09:37:13;;;;;;;;;;;21.80;77.10;;;;;;5122361;28;19912;-44
2023/09/22 09:39:43;;;;;;;;;;;21.70;77.10;;;;;;5122779;28;19912;-44
2023/09/22 09:42:09;;;;;;;;;;;21.70;77.10;;;;;;5140293;27;19943;-44
2023/09/22 09:44:36;;;;;;;;;;;21.70;77.10;;;;;;5127167;28;19929;-45
2023/09/22 09:47:03;;;;;;;;;;;21.70;77.20;;;;;;5141572;27;19943;-44
2023/09/22 09:49:29;;;;;;;;;;;21.70;77.10;;;;;;5120241;28;19916;-45
2023/09/22 09:51:55;;;;;;;;;;;21.70;77.20;;;;;;5124485;27;19951;-44
2023/09/22 09:54:21;;;;;;;;;;;21.70;77.20;;;;;;5126420;27;19911;-43
2023/09/22 09:56:47;;;;;;;;;;;21.70;77.20;;;;;;5138543;27;19931;-43
2023/09/22 09:59:12;;;;;;;;;;;21.70;77.20;;;;;;5124381;28;20014;-43
2023/09/22 10:01:39;;;;;;;;;;;21.60;77.10;;;;;;5125964;28;19911;-45
2023/09/22 10:04:05;;;;;;;;;;;21.70;77.20;;;;;;5126277;28;19935;-43
2023/09/22 10:06:31;;;;;;;;;;;21.70;77.30;;;;;;5119030;28;19923;-45
2023/09/22 10:08:57;;;;;;;;;;;21.60;77.20;;;;;;5108467;28;19915;-44
2023/09/22 10:11:23;;;;;;;;;;;21.60;77.20;;;;;;5125638;28;19915;-44
2023/09/22 10:13:49;;;;;;;;;;;21.60;77.20;;;;;;5127234;28;19951;-43
2023/09/22 10:16:27;;;;;;;;;;;21.60;77.20;;;;;;5125413;28;20363;-43
2023/09/22 10:18:56;;;;;;;;;;;21.60;77.20;;;;;;5126313;28;19908;-44
2023/09/22 10:21:34;;;;;;;;;;;21.60;77.30;;;;;;5119790;27;19912;-44
2023/09/22 10:24:16;;;;;;;;;;;21.60;77.30;;;;;;5113573;28;19922;-43
2023/09/22 10:26:54;;;;;;;;;;;21.60;77.30;;;;;;5114032;28;20686;-43
2023/09/22 10:29:35;;;;;;;;;;;21.60;77.30;;;;;;5113630;28;19947;-43
2023/09/22 10:32:16;;;;;;;;;;;21.60;77.30;;;;;;5113421;28;19974;-44
2023/09/22 10:34:52;;;;;;;;;;;21.60;77.30;;;;;;5114416;28;19933;-44
2023/09/22 10:37:19;;;;;;;;;;;21.60;77.30;;;;;;5112713;28;19987;-45
2023/09/22 10:39:52;;;;;;;;;;;21.60;77.30;;;;;;5115218;28;19919;-43
2023/09/22 10:42:18;;;;;;;;;;;21.60;77.30;;;;;;5111306;28;20648;-45
2023/09/22 10:45:03;;;;;;;;;;;21.60;77.30;;;;;;5113769;28;19918;-43
2023/09/22 10:47:41;;;;;;;;;;;21.60;78.00;;;;;;5114189;28;19919;-44
2023/09/22 10:50:11;;;;;;;;;;;21.50;77.30;;;;;;5116145;28;19920;-43
2023/09/22 10:52:37;;;;;;;;;;;21.50;77.30;;;;;;5125235;28;19911;-44
2023/09/22 10:55:05;;;;;;;;;;;21.50;77.40;;;;;;5125610;28;20691;-45
2023/09/22 10:57:31;;;;;;;;;;;21.50;77.30;;;;;;5118409;28;19916;-44
2023/09/22 10:59:57;;;;;;;;;;;21.50;77.30;;;;;;5124405;28;19947;-45
2023/09/22 11:02:23;;;;;;;;;;;21.50;77.30;;;;;;5125812;28;19933;-44
2023/09/22 11:04:49;;;;;;;;;;;21.50;77.40;;;;;;5125834;27;19911;-44
2023/09/22 11:07:31;;;;;;;;;;;21.50;77.40;;;;;;5116868;28;19919;-43
2023/09/22 11:09:57;;;;;;;;;;;21.50;77.40;;;;;;5125037;28;19916;-44
2023/09/22 11:12:23;;;;;;;;;;;21.50;77.40;;;;;;5120950;28;19975;-45
2023/09/22 11:14:49;;;;;;;;;;;21.40;77.40;;;;;;5120419;28;19918;-45
2023/09/22 11:17:15;;;;;;;;;;;21.40;77.40;;;;;;5104810;28;19999;-44
2023/09/22 11:19:50;;;;;;;;;;;21.40;77.50;;;;;;5120315;27;19912;-44
2023/09/22 11:22:16;;;;;;;;;;;21.40;77.40;;;;;;5115234;28;19915;-44
2023/09/22 11:24:42;;;;;;;;;;;21.40;77.50;;;;;;5118485;28;19912;-43
2023/09/22 11:27:10;;;;;;;;;;;21.40;77.40;;;;;;5117450;28;19916;-46
2023/09/22 11:29:36;;;;;;;;;;;21.40;77.40;;;;;;5117553;28;20697;-43
2023/09/22 11:32:03;;;;;;;;;;;21.40;77.40;;;;;;5117612;28;19907;-43
2023/09/22 11:34:29;;;;;;;;;;;21.40;77.50;;;;;;5115321;28;19937;-44
2023/09/22 11:36:55;;;;;;;;;;;21.30;77.40;;;;;;5118808;28;19911;-44
2023/09/22 11:39:25;;;;;;;;;;;21.40;77.50;;;;;;5117356;28;19912;-43
2023/09/22 11:41:51;;;;;;;;;;;21.40;77.50;;;;;;5116895;28;19915;-43
2023/09/22 11:44:17;;;;;;;;;;;21.30;77.40;;;;;;5118121;28;19915;-44
2023/09/22 11:46:45;;;;;;;;;;;21.30;77.50;;;;;;5118143;28;19911;-44
2023/09/22 11:49:12;;;;;;;;;;;21.30;77.50;;;;;;5116744;28;19922;-43
2023/09/22 11:51:42;;;;;;;;;;;21.30;77.50;;;;;;5121575;28;19911;-44
2023/09/22 11:54:08;;;;;;;;;;;21.30;77.60;;;;;;5123085;28;19908;-44
2023/09/22 11:56:34;;;;;;;;;;;21.30;77.50;;;;;;5124559;28;19927;-44
2023/09/22 11:59:06;;;;;;;;;;;21.30;77.50;;;;;;5123451;28;19911;-44
2023/09/22 12:01:32;;;;;;;;;;;21.30;77.60;;;;;;5117387;28;19946;-43
2023/09/22 12:03:58;;;;;;;;;;;21.30;77.60;;;;;;5122093;28;19912;-43
2023/09/22 12:06:24;;;;;;;;;;;21.30;77.50;;;;;;5122091;27;19975;-44
2023/09/22 12:08:51;;;;;;;;;;;21.30;77.50;;;;;;5124364;28;20068;-43
2023/09/22 12:11:17;;;;;;;;;;;21.30;77.60;;;;;;5124068;28;19915;-43
2023/09/22 12:13:43;;;;;;;;;;;21.20;77.50;;;;;;5123494;28;19934;-44
2023/09/22 12:16:09;;;;;;;;;;;21.20;77.60;;;;;;5123699;28;20006;-44
2023/09/22 12:18:35;;;;;;;;;;;21.20;77.60;;;;;;5119830;28;19929;-44
2023/09/22 12:21:01;;;;;;;;;;;21.20;77.60;;;;;;5117090;28;19943;-44
2023/09/22 12:23:27;;;;;;;;;;;21.20;77.60;;;;;;5116309;28;19908;-44
2023/09/22 12:25:53;;;;;;;;;;;21.20;77.60;;;;;;5117746;28;19940;-45
2023/09/22 12:28:19;;;;;;;;;;;21.20;77.60;;;;;;5116461;28;19912;-44
2023/09/22 12:30:44;;;;;;;;;;;21.20;77.60;;;;;;5116999;28;19916;-44
2023/09/22 12:33:11;;;;;;;;;;;21.20;77.60;;;;;;5111877;28;19919;-44
2023/09/22 12:35:41;;;;;;;;;;;21.20;77.60;;;;;;5124351;28;19911;-44
2023/09/22 12:38:07;;;;;;;;;;;21.20;77.60;;;;;;5124030;28;20387;-43
2023/09/22 12:40:33;;;;;;;;;;;21.20;77.60;;;;;;5124149;28;19929;-44
2023/09/22 12:42:59;;;;;;;;;;;21.10;77.60;;;;;;5123126;28;20325;-45
2023/09/22 12:45:25;;;;;;;;;;;21.20;77.70;;;;;;5123770;28;19911;-44
2023/09/22 12:47:51;;;;;;;;;;;21.20;77.70;;;;;;5122811;28;19915;-45
2023/09/22 12:50:17;;;;;;;;;;;21.10;77.70;;;;;;5123657;28;19923;-44
2023/09/22 12:52:43;;;;;;;;;;;21.10;77.70;;;;;;5122764;28;20013;-44
2023/09/22 12:55:10;;;;;;;;;;;21.10;77.70;;;;;;5121763;28;19916;-44
2023/09/22 12:57:37;;;;;;;;;;;21.10;77.80;;;;;;5115382;28;19920;-44
2023/09/22 13:00:04;;;;;;;;;;;21.10;77.80;;;;;;5121296;28;19911;-45
2023/09/22 13:02:32;;;;;;;;;;;21.10;77.80;;;;;;5111229;28;20328;-45
2023/09/22 13:04:58;;;;;;;;;;;21.10;77.90;;;;;;5124020;27;19916;-44
2023/09/22 13:07:24;;;;;;;;;;;21.10;77.90;;;;;;5123523;28;19972;-44
2023/09/22 13:09:50;;;;;;;;;;;21.10;77.90;;;;;;5123640;28;19915;-44
2023/09/22 13:12:16;;;;;;;;;;;21.10;77.90;;;;;;5121188;28;19911;-45
2023/09/22 13:14:42;;;;;;;;;;;21.10;77.90;;;;;;5123404;28;19907;-44
2023/09/22 13:17:08;;;;;;;;;;;21.10;77.90;;;;;;5120059;28;20351;-44
2023/09/22 13:19:34;;;;;;;;;;;21.10;77.80;;;;;;5123087;28;19925;-44
2023/09/22 13:22:00;;;;;;;;;;;21.10;77.90;;;;;;5099510;28;19912;-45
2023/09/22 13:24:26;;;;;;;;;;;21.10;77.90;;;;;;5117898;28;19919;-44
2023/09/22 13:26:52;;;;;;;;;;;21.10;77.90;;;;;;5116999;28;19930;-44
2023/09/22 13:29:18;;;;;;;;;;;21.10;77.90;;;;;;5120935;28;19919;-45
2023/09/22 13:31:45;;;;;;;;;;;21.10;78.00;;;;;;5123091;28;19915;-45
2023/09/22 13:34:11;;;;;;;;;;;21.10;78.00;;;;;;5120944;28;20332;-47
2023/09/22 13:36:37;;;;;;;;;;;21.10;78.00;;;;;;5123166;28;19919;-45
2023/09/22 13:39:06;;;;;;;;;;;21.00;78.00;;;;;;5121672;28;19911;-44
2023/09/22 13:41:32;;;;;;;;;;;21.10;78.10;;;;;;5114621;28;19908;-44
2023/09/22 13:43:58;;;;;;;;;;;21.00;78.10;;;;;;5122911;28;19913;-46
2023/09/22 13:46:24;;;;;;;;;;;21.10;78.10;;;;;;5123039;28;19976;-45
2023/09/22 13:48:50;;;;;;;;;;;21.10;78.10;;;;;;5125359;28;19912;-45
2023/09/22 13:51:17;;;;;;;;;;;21.10;78.10;;;;;;5124725;28;19916;-45
2023/09/22 13:53:44;;;;;;;;;;;21.10;78.10;;;;;;5122009;28;19912;-45
2023/09/22 13:56:17;;;;;;;;;;;21.10;78.10;;;;;;5119949;28;19907;-45
2023/09/22 13:58:44;;;;;;;;;;;21.10;78.10;;;;;;5123027;28;19917;-45
2023/09/22 14:01:10;;;;;;;;;;;21.10;78.10;;;;;;5122029;28;20328;-45
2023/09/22 14:03:36;;;;;;;;;;;21.10;78.10;;;;;;5121995;28;20046;-44
2023/09/22 14:06:02;;;;;;;;;;;21.10;78.10;;;;;;5121314;28;20383;-45
2023/09/22 14:08:28;;;;;;;;;;;21.10;78.10;;;;;;5120616;28;20010;-44
2023/09/22 14:10:57;;;;;;;;;;;21.10;78.10;;;;;;5122024;28;19958;-44
2023/09/22 14:13:23;;;;;;;;;;;21.10;78.10;;;;;;5122187;28;20352;-45
2023/09/22 14:15:49;;;;;;;;;;;21.10;78.10;;;;;;5122681;28;19912;-45
2023/09/22 14:18:15;;;;;;;;;;;21.10;78.20;;;;;;5121390;28;19907;-46